X  Close Metar Aviation Weather Data     EHKD De Kooy Airport
Temperature
66°F Temperature
57°F Dewpoint
73% Humidity



Wind
21 MPH
34 KM/H
9 M/S
18 KTS



230°
SW
Current Conditions

Partly Cloudy Partly Cloudy
Pressure 1008.81 (hPa) - 29.79 (inHg)
Visibility 6 (mile) - 9.7 (km)
Airport
Airport-code EHKD

Location: De Kooy Airport
Distance: 34 (mi)

Metar:
EHKD 161425Z AUTO 23018KT 190V270 9999 FEW014 OVC240 19/14 Q1009 BLU NOSIG

Time: 16-07-2024 16:25 CEST